CheckWX is a tool to help pilots better visualize weather data.  It is not intended as a substitute for an official pre-flight weather briefing.

18:15:06 UTC

6I2 METAR
Lebanon Springfield-George Hoerter Field Airport
Springfield, Kentucky, USA
Current

40 mins ago

K6I2 131735Z AUTO 00000KT CLR M02/M08 A3033 RMK AO2
Observed
Nov-13 @ 17:35 UTC
Visibility
Cloud Levels
  • Clear skies
Temperature
-2°C / 28°F
Dewpoint
-8°C / 18°F
Humidity
64%
Altimeter
30.33" Hg
Pressure
1027.12 hPa
Previous

60 mins ago

K6I2 131715Z AUTO 00000KT CLR M02/M08 A3034 RMK AO2
Observed
Nov-13 @ 17:15 UTC
Visibility
Cloud Levels
  • Clear skies
Temperature
-2°C / 28°F
Dewpoint
-8°C / 18°F
Humidity
64%
Altimeter
30.34" Hg
Pressure
1027.42 hPa
Previous

1 hour ago

K6I2 131655Z AUTO 18003KT CLR M02/M08 A3034 RMK AO2
Observed
Nov-13 @ 16:55 UTC
Wind
  • 180° at 3 KTS
Visibility
Cloud Levels
  • Clear skies
Temperature
-2°C / 28°F
Dewpoint
-8°C / 18°F
Humidity
64%
Altimeter
30.34" Hg
Pressure
1027.42 hPa